Time;durP1;ratioP1;P1;durP2;ratioP2;P2;SDS_P1;SDS_P2;PMS_P1;PMS_P2;Temp;Humidity;BMP_temperature;BMP_pressure;BME280_temperature;BME280_humidity;BME280_pressure;Samples;Min_cycle;Max_cycle;Signal;HPM_P1;HPM_P2
2022/08/01 00:00:50;;;;;;;6.43;2.80;;;;;;;22.44;61.54;101561.44;5104877;28;20105;-65
2022/08/01 00:03:17;;;;;;;4.43;2.85;;;;;;;22.45;61.81;101562.28;5096286;28;20051;-65
2022/08/01 00:05:48;;;;;;;5.50;2.97;;;;;;;22.43;61.84;101559.81;5105123;28;20048;-66
2022/08/01 00:08:16;;;;;;;6.75;3.17;;;;;;;22.43;61.87;101561.75;5101672;28;20055;-65
2022/08/01 00:10:43;;;;;;;5.82;2.97;;;;;;;22.42;61.29;101562.84;5099596;28;20090;-65
2022/08/01 00:13:11;;;;;;;6.32;3.10;;;;;;;22.42;61.79;101565.56;5098617;28;20051;-65
2022/08/01 00:15:39;;;;;;;6.85;3.72;;;;;;;22.41;61.73;101556.53;5100599;28;20452;-65
2022/08/01 00:18:07;;;;;;;4.97;2.80;;;;;;;22.38;61.79;101560.66;5092347;28;20064;-65
2022/08/01 00:20:34;;;;;;;5.43;3.10;;;;;;;22.39;61.81;101558.75;5103691;28;20072;-65
2022/08/01 00:23:04;;;;;;;6.25;3.03;;;;;;;22.36;61.75;101562.88;5106716;28;20056;-65
2022/08/01 00:25:32;;;;;;;4.20;2.83;;;;;;;22.35;61.81;101558.50;5097617;28;20044;-65
2022/08/01 00:28:01;;;;;;;6.45;2.95;;;;;;;22.35;61.83;101563.97;5104017;28;20044;-66
2022/08/01 00:30:31;;;;;;;4.72;3.03;;;;;;;22.34;61.71;101565.06;5098098;28;20055;-66
2022/08/01 00:32:59;;;;;;;8.90;3.38;;;;;;;22.32;62.12;101561.81;5099481;28;20521;-66
2022/08/01 00:35:27;;;;;;;8.77;4.05;;;;;;;22.15;61.92;101544.09;5097528;28;20068;-66
2022/08/01 00:37:55;;;;;;;6.60;3.25;;;;;;;22.29;61.91;101564.28;5103273;28;20044;-66
2022/08/01 00:40:24;;;;;;;5.60;3.40;;;;;;;22.28;62.13;101568.13;5093596;28;20079;-66
2022/08/01 00:42:52;;;;;;;6.20;3.40;;;;;;;22.27;61.99;101563.75;5093324;28;20056;-66
2022/08/01 00:45:20;;;;;;;6.32;3.63;;;;;;;22.25;62.13;101565.94;5095525;28;20040;-66
2022/08/01 00:47:48;;;;;;;5.07;3.17;;;;;;;22.25;62.25;101566.78;5099217;28;20180;-66
2022/08/01 00:50:22;;;;;;;6.20;3.60;;;;;;;22.23;61.93;101571.72;5099306;28;20055;-65
2022/08/01 00:52:51;;;;;;;8.68;3.70;;;;;;;22.23;62.01;101568.16;5097998;28;20044;-65
2022/08/01 00:55:20;;;;;;;8.15;4.30;;;;;;;22.22;62.63;101569.25;5088742;28;20036;-66
2022/08/01 00:57:49;;;;;;;9.45;3.67;;;;;;;22.21;62.44;101562.13;5096060;28;20095;-66
2022/08/01 01:00:33;;;;;;;8.82;3.60;;;;;;;22.20;62.24;101565.97;5103859;28;20050;-66
2022/08/01 01:03:21;;;;;;;9.00;4.60;;;;;;;22.19;62.55;101569.81;5088594;28;20044;-66
2022/08/01 01:06:19;;;;;;;6.22;3.60;;;;;;;22.17;62.50;101569.28;5102370;28;20083;-66
2022/08/01 01:08:55;;;;;;;10.80;4.55;;;;;;;22.03;62.80;101552.66;5103400;28;20078;-65
2022/08/01 01:11:29;;;;;;;8.18;4.00;;;;;;;22.16;62.71;101570.38;5086021;28;20048;-65
2022/08/01 01:14:05;;;;;;;10.15;4.38;;;;;;;22.14;62.98;101567.09;5091428;28;20048;-66
2022/08/01 01:16:36;;;;;;;9.65;3.85;;;;;;;22.13;62.88;101573.69;5103580;28;20047;-65
2022/08/01 01:19:09;;;;;;;10.02;5.05;;;;;;;22.11;62.83;101567.66;5100768;28;20087;-65
2022/08/01 01:22:01;;;;;;;9.82;5.00;;;;;;;22.11;63.05;101570.41;5103138;28;20043;-65
2022/08/01 01:24:39;;;;;;;9.55;4.70;;;;;;;22.08;63.33;101564.41;5096469;28;20047;-65
2022/08/01 01:27:19;;;;;;;7.18;3.78;;;;;;;22.09;63.33;101562.47;5101626;28;20086;-65
2022/08/01 01:29:53;;;;;;;10.07;4.53;;;;;;;22.07;63.33;101562.75;5095802;28;20055;-65
2022/08/01 01:32:33;;;;;;;7.43;4.43;;;;;;;22.08;63.35;101560.84;5096236;28;20047;-65
2022/08/01 01:35:06;;;;;;;7.97;4.25;;;;;;;22.06;63.19;101569.34;5102070;28;20054;-66
2022/08/01 01:37:38;;;;;;;11.45;4.53;;;;;;;21.90;63.25;101537.63;5102731;28;20539;-65
2022/08/01 01:40:08;;;;;;;7.88;4.55;;;;;;;22.05;62.99;101566.88;5094339;28;20049;-65
2022/08/01 01:42:37;;;;;;;10.52;4.60;;;;;;;22.05;62.61;101572.34;5098564;28;20082;-65
2022/08/01 01:45:08;;;;;;;8.05;4.75;;;;;;;22.05;63.10;101569.59;5098872;28;20051;-65
2022/08/01 01:47:39;;;;;;;8.77;5.05;;;;;;;22.05;63.39;101577.81;5091914;28;20059;-65
2022/08/01 01:50:12;;;;;;;6.40;4.60;;;;;;;22.04;63.17;101585.22;5098777;28;20190;-66
2022/08/01 01:52:43;;;;;;;7.65;4.78;;;;;;;22.03;62.94;101572.63;5097404;28;20048;-65
2022/08/01 01:55:12;;;;;;;8.23;4.40;;;;;;;22.03;62.98;101575.38;5094377;28;20063;-66
2022/08/01 01:57:43;;;;;;;8.27;4.82;;;;;;;22.03;62.77;101575.38;5105952;28;20055;-66
2022/08/01 02:00:14;;;;;;;9.98;4.68;;;;;;;22.04;62.92;101578.91;5101739;28;20068;-66
2022/08/01 02:02:43;;;;;;;7.75;4.72;;;;;;;22.02;63.03;101565.53;5104224;28;20493;-66
2022/08/01 02:05:13;;;;;;;11.13;5.20;;;;;;;22.03;63.00;101572.63;5091644;28;20068;-66
2022/08/01 02:07:42;;;;;;;9.88;5.10;;;;;;;22.04;62.98;101567.97;5094352;28;20052;-66
2022/08/01 02:10:12;;;;;;;9.68;6.10;;;;;;;22.02;63.04;101573.72;5099407;28;20064;-66
2022/08/01 02:12:45;;;;;;;10.82;4.97;;;;;;;21.88;62.81;101548.03;5095546;28;20067;-66
2022/08/01 02:15:16;;;;;;;11.43;5.45;;;;;;;22.02;63.27;101572.91;5102296;28;20044;-66
2022/08/01 02:17:47;;;;;;;9.63;4.65;;;;;;;22.01;63.07;101568.50;5101397;28;20035;-66
2022/08/01 02:20:16;;;;;;;10.70;6.43;;;;;;;22.00;63.60;101575.91;5097407;28;20103;-66
2022/08/01 02:22:51;;;;;;;8.68;5.68;;;;;;;21.99;63.78;101577.00;5096197;28;20052;-66
2022/08/01 02:25:24;;;;;;;11.65;5.90;;;;;;;21.97;63.86;101570.97;5091570;28;20048;-66
2022/08/01 02:28:01;;;;;;;8.98;5.72;;;;;;;21.97;63.54;101568.25;5096529;28;20044;-66
2022/08/01 02:30:34;;;;;;;13.13;6.13;;;;;;;21.96;63.52;101569.34;5098265;28;20044;-66
2022/08/01 02:33:06;;;;;;;7.20;4.70;;;;;;;21.97;62.95;101567.44;5104209;28;20044;-66
2022/08/01 02:35:43;;;;;;;10.13;6.10;;;;;;;21.95;63.34;101567.72;5093390;28;20389;-66
2022/08/01 02:38:35;;;;;;;9.82;5.18;;;;;;;21.95;63.34;101573.19;5104131;28;20054;-66
2022/08/01 02:41:08;;;;;;;8.82;5.95;;;;;;;21.94;63.22;101568.81;5103151;28;20048;-66
2022/08/01 02:43:39;;;;;;;7.70;4.07;;;;;;;21.94;63.08;101568.00;5103121;28;20052;-66
2022/08/01 02:46:12;;;;;;;7.03;4.55;;;;;;;21.93;63.39;101561.69;5096303;28;20155;-66
2022/08/01 02:48:43;;;;;;;12.40;5.00;;;;;;;21.92;62.95;101559.25;5100828;28;20063;-66
2022/08/01 02:51:13;;;;;;;11.07;6.00;;;;;;;21.92;63.26;101559.25;5103494;28;20044;-66
2022/08/01 02:53:43;;;;;;;12.00;5.75;;;;;;;21.91;62.91;101554.88;5105643;28;20123;-66
2022/08/01 02:56:14;;;;;;;8.35;5.68;;;;;;;21.75;62.98;101543.16;5100238;28;20516;-66
2022/08/01 02:58:44;;;;;;;9.93;5.47;;;;;;;21.76;63.26;101545.63;5102453;28;20050;-66
2022/08/01 03:01:15;;;;;;;10.70;5.88;;;;;;;21.88;63.32;101563.63;5103681;28;20051;-66
2022/08/01 03:03:46;;;;;;;9.95;5.93;;;;;;;21.88;63.50;101567.19;5091170;28;20409;-66
2022/08/01 03:06:15;;;;;;;10.05;5.55;;;;;;;21.87;63.66;101559.25;5064567;28;1119699;-66
2022/08/01 03:08:44;;;;;;;8.50;5.53;;;;;;;21.86;63.58;101563.91;5106225;28;20059;-65
2022/08/01 03:11:14;;;;;;;11.73;5.78;;;;;;;21.86;63.60;101576.78;5097423;28;20075;-66
2022/08/01 03:13:44;;;;;;;8.50;5.40;;;;;;;21.85;63.51;101569.66;5106088;28;20052;-66
2022/08/01 03:16:14;;;;;;;9.70;5.43;;;;;;;21.83;63.92;101571.88;5099398;28;20048;-66
2022/08/01 03:18:44;;;;;;;9.15;5.15;;;;;;;21.82;63.48;101576.50;5105667;28;20048;-66
2022/08/01 03:21:14;;;;;;;12.30;5.63;;;;;;;21.82;63.63;101576.50;5089378;28;20044;-66
2022/08/01 03:23:44;;;;;;;9.98;6.25;;;;;;;21.81;63.78;101571.31;5095190;28;20051;-66
2022/08/01 03:26:12;;;;;;;9.30;5.78;;;;;;;21.80;64.00;101575.97;5103132;28;20101;-66
2022/08/01 03:28:42;;;;;;;10.82;6.70;;;;;;;21.79;63.99;101576.25;5090931;28;20059;-66
2022/08/01 03:31:11;;;;;;;8.25;5.78;;;;;;;21.77;63.78;101577.34;5089931;28;20076;-66
2022/08/01 03:33:40;;;;;;;9.68;6.15;;;;;;;21.76;64.12;101578.44;5096144;28;20060;-66
2022/08/01 03:36:12;;;;;;;9.95;6.18;;;;;;;21.75;64.07;101576.81;5091773;28;20052;-66
2022/08/01 03:38:42;;;;;;;10.48;6.75;;;;;;;21.74;64.38;101577.91;5099113;28;20068;-66
2022/08/01 03:41:12;;;;;;;11.00;6.40;;;;;;;21.75;63.90;101576.00;5104115;28;20075;-66
2022/08/01 03:43:46;;;;;;;12.30;7.07;;;;;;;21.74;64.34;101579.81;5103047;28;20075;-66
2022/08/01 03:46:19;;;;;;;15.57;7.15;;;;;;;21.72;64.28;101580.09;5092042;28;20051;-66
2022/08/01 03:48:51;;;;;;;10.70;7.15;;;;;;;21.71;64.32;101575.72;5104372;28;20485;-66
2022/08/01 03:51:22;;;;;;;11.13;5.90;;;;;;;21.69;64.25;101566.97;5107237;28;20104;-66
2022/08/01 03:53:53;;;;;;;10.82;6.53;;;;;;;21.70;64.17;101576.84;5101606;28;20059;-66
2022/08/01 03:56:22;;;;;;;10.90;6.43;;;;;;;21.63;63.98;101568.09;5093028;28;20067;-66
2022/08/01 03:58:52;;;;;;;10.98;6.13;;;;;;;21.56;63.72;101558.53;5102532;28;20044;-66
2022/08/01 04:01:20;;;;;;;7.50;5.80;;;;;;;21.68;63.77;101573.56;5098331;28;20075;-66
2022/08/01 04:03:50;;;;;;;10.55;5.60;;;;;;;21.67;63.42;101577.38;5094121;28;20048;-66
2022/08/01 04:06:18;;;;;;;10.20;6.05;;;;;;;21.67;63.47;101579.31;5113105;28;20074;-66
2022/08/01 04:08:55;;;;;;;14.77;6.40;;;;;;;21.68;63.81;101578.22;5085549;28;20074;-66
2022/08/01 04:11:24;;;;;;;11.10;7.60;;;;;;;21.67;64.20;101577.38;5095772;28;20076;-66
2022/08/01 04:13:53;;;;;;;8.50;6.28;;;;;;;21.65;64.09;101582.31;5104816;28;20048;-66
2022/08/01 04:16:22;;;;;;;13.35;7.80;;;;;;;21.65;64.10;101584.22;5087868;28;20056;-66
2022/08/01 04:18:52;;;;;;;9.82;6.82;;;;;;;21.65;64.11;101584.22;5094843;28;20040;-66
2022/08/01 04:21:24;;;;;;;10.32;6.60;;;;;;;21.63;64.09;101581.78;5094560;28;20048;-66
2022/08/01 04:23:54;;;;;;;14.38;7.80;;;;;;;21.62;64.03;101584.78;5096463;28;20102;-66
2022/08/01 04:26:24;;;;;;;12.02;6.88;;;;;;;21.62;63.79;101584.78;5103800;28;20535;-66
2022/08/01 04:28:54;;;;;;;12.60;6.95;;;;;;;21.62;63.82;101582.88;5097663;28;20048;-66
2022/08/01 04:31:26;;;;;;;8.02;5.88;;;;;;;21.62;63.59;101591.06;5100256;28;20056;-66
2022/08/01 04:33:57;;;;;;;11.65;6.68;;;;;;;21.52;63.60;101574.69;5092808;28;20075;-66
2022/08/01 04:36:28;;;;;;;10.20;6.00;;;;;;;21.62;63.34;101588.34;5098291;28;20051;-66
2022/08/01 04:38:59;;;;;;;7.85;5.60;;;;;;;21.61;63.47;101586.69;5102648;28;20055;-66
2022/08/01 04:41:27;;;;;;;7.65;5.35;;;;;;;21.61;63.27;101588.63;5106117;28;20097;-66
2022/08/01 04:43:55;;;;;;;8.65;6.47;;;;;;;21.62;63.63;101598.47;5104562;28;20054;-66
2022/08/01 04:46:23;;;;;;;10.80;7.05;;;;;;;21.61;63.86;101594.09;5108739;28;20048;-66
2022/08/01 04:48:52;;;;;;;13.13;8.55;;;;;;;21.61;64.24;101613.25;5089589;28;20059;-66
2022/08/01 04:51:22;;;;;;;8.77;6.03;;;;;;;21.59;63.96;101610.78;5104308;28;20047;-65
2022/08/01 04:53:50;;;;;;;11.30;7.35;;;;;;;21.59;64.12;101615.44;5105246;28;20071;-66
2022/08/01 04:56:19;;;;;;;10.18;7.25;;;;;;;21.55;63.93;101609.69;5099238;28;20101;-66
2022/08/01 04:58:47;;;;;;;9.57;6.80;;;;;;;21.58;64.10;101620.09;4733071;28;10000146;-66
2022/08/01 05:01:15;;;;;;;11.00;7.95;;;;;;;21.57;64.51;101625.84;5085690;28;20072;-66
2022/08/01 05:03:43;;;;;;;12.63;6.90;;;;;;;21.55;64.52;101620.63;5090783;28;20052;-66
2022/08/01 05:06:11;;;;;;;11.07;7.97;;;;;;;21.55;64.13;101625.28;5084266;28;20052;-66
2022/08/01 05:08:41;;;;;;;11.88;7.72;;;;;;;21.52;64.06;101626.66;5090892;28;20086;-66
2022/08/01 05:11:08;;;;;;;14.52;7.28;;;;;;;21.53;64.61;101636.50;5087010;28;20120;-66
2022/08/01 05:13:36;;;;;;;12.30;8.45;;;;;;;21.52;64.32;101636.78;5094423;28;20080;-65
2022/08/01 05:16:07;;;;;;;11.20;7.65;;;;;;;21.51;64.44;101633.22;5088493;28;20090;-66
2022/08/01 05:18:34;;;;;;;10.77;7.18;;;;;;;21.48;64.22;101624.75;5092316;28;20127;-66
2022/08/01 05:21:02;;;;;;;9.75;7.13;;;;;;;21.50;64.24;101633.50;5096528;28;20076;-66
2022/08/01 05:23:30;;;;;;;11.70;8.23;;;;;;;21.47;64.80;101628.59;5082416;28;20048;-66
2022/08/01 05:26:13;;;;;;;10.90;8.18;;;;;;;21.35;64.79;101617.94;5095835;28;20147;-66
2022/08/01 05:28:42;;;;;;;13.25;7.65;;;;;;;21.48;64.53;101635.69;5090609;28;20596;-66
2022/08/01 05:31:10;;;;;;;11.00;8.00;;;;;;;21.46;64.82;101649.66;5094158;28;20050;-66
2022/08/01 05:33:38;;;;;;;10.63;7.85;;;;;;;21.46;64.77;101648.81;5099366;28;20080;-66
2022/08/01 05:36:06;;;;;;;10.85;6.93;;;;;;;21.44;64.70;101643.63;5096362;28;20091;-66
2022/08/01 05:38:34;;;;;;;10.32;6.50;;;;;;;21.42;64.34;101643.09;5087320;28;20072;-66
2022/08/01 05:41:02;;;;;;;10.63;7.40;;;;;;;21.42;64.57;101643.91;5092873;28;20083;-65
2022/08/01 05:43:31;;;;;;;10.35;6.60;;;;;;;21.42;64.55;101643.91;5091443;28;20055;-66
2022/08/01 05:45:59;;;;;;;12.00;7.25;;;;;;;21.41;64.57;101647.72;5096361;28;20744;-65
2022/08/01 05:48:27;;;;;;;10.77;6.57;;;;;;;21.41;64.67;101641.44;5097954;28;20044;-65
2022/08/01 05:50:55;;;;;;;10.32;6.05;;;;;;;21.40;64.53;101639.81;5099283;28;20076;-65
2022/08/01 05:53:25;;;;;;;10.30;6.78;;;;;;;21.39;64.56;101638.97;5094619;28;20067;-65
2022/08/01 05:55:53;;;;;;;10.18;6.00;;;;;;;21.40;64.14;101637.06;5094220;28;20062;-65
2022/08/01 05:58:21;;;;;;;11.38;6.22;;;;;;;21.41;64.20;101627.78;5101611;28;20044;-66
2022/08/01 06:00:50;;;;;;;8.70;6.10;;;;;;;21.40;63.93;101631.59;5099889;28;20056;-65
2022/08/01 06:03:19;;;;;;;9.63;6.70;;;;;;;21.41;63.97;101635.97;5092566;28;20101;-66
2022/08/01 06:05:46;;;;;;;9.60;5.45;;;;;;;21.33;64.07;101623.69;5097013;28;20071;-66
2022/08/01 06:08:14;;;;;;;7.40;5.30;;;;;;;21.41;63.78;101634.06;5096451;28;20568;-66
2022/08/01 06:10:42;;;;;;;8.30;5.10;;;;;;;21.42;63.78;101640.34;5098061;28;20063;-65
2022/08/01 06:13:10;;;;;;;7.18;5.03;;;;;;;21.41;63.77;101636.78;5090676;28;20616;-64
2022/08/01 06:15:38;;;;;;;6.53;4.45;;;;;;;21.42;63.79;101637.63;5087135;28;20086;-66
2022/08/01 06:18:07;;;;;;;7.10;4.47;;;;;;;21.40;63.84;101634.34;5095322;28;20101;-64
2022/08/01 06:20:35;;;;;;;8.52;5.18;;;;;;;21.42;64.13;101634.88;5100424;28;20051;-65
2022/08/01 06:23:03;;;;;;;8.07;5.10;;;;;;;21.41;64.28;101634.06;5095281;28;20051;-65
2022/08/01 06:25:53;;;;;;;9.13;5.38;;;;;;;21.41;64.14;101633.25;5096353;28;20058;-67
2022/08/01 06:28:21;;;;;;;8.80;5.28;;;;;;;21.40;63.95;101626.94;5095548;28;20044;-66
2022/08/01 06:30:49;;;;;;;7.43;5.13;;;;;;;21.41;64.17;101631.31;5094448;28;20140;-66
2022/08/01 06:33:18;;;;;;;8.10;4.55;;;;;;;21.43;64.14;101639.25;5095363;28;20040;-66
2022/08/01 06:35:46;;;;;;;6.82;5.00;;;;;;;21.43;64.16;101642.81;5088617;28;20080;-66
2022/08/01 06:38:13;;;;;;;7.00;4.70;;;;;;;21.44;64.23;101646.38;5081190;28;20049;-67
2022/08/01 06:40:41;;;;;;;8.43;4.68;;;;;;;21.44;64.12;101649.91;5096965;28;20076;-66
2022/08/01 06:43:11;;;;;;;5.75;4.07;;;;;;;21.46;64.19;101651.56;5096278;28;20380;-66
2022/08/01 06:45:39;;;;;;;5.88;3.90;;;;;;;21.46;64.15;101652.38;5098487;28;20052;-67
2022/08/01 06:48:07;;;;;;;8.38;3.83;;;;;;;21.47;64.10;101650.47;5096461;28;20040;-66
2022/08/01 06:50:36;;;;;;;5.80;4.03;;;;;;;21.37;64.11;101638.44;5088279;28;20079;-66
2022/08/01 06:53:04;;;;;;;5.50;3.10;;;;;;;21.46;64.29;101651.56;5098891;28;20062;-66
2022/08/01 06:55:32;;;;;;;4.60;3.03;;;;;;;21.43;64.06;101661.94;5093518;28;20078;-68
2022/08/01 06:58:00;;;;;;;4.78;2.63;;;;;;;21.44;64.10;101655.38;5098388;28;20048;-69
2022/08/01 07:00:28;;;;;;;6.07;2.78;;;;;;;21.47;63.74;101658.66;5107182;28;20052;-69
2022/08/01 07:02:58;;;;;;;6.88;2.67;;;;;;;21.49;63.78;101665.50;5088801;28;20071;-69
2022/08/01 07:05:26;;;;;;;4.32;2.53;;;;;;;21.38;63.63;101639.25;5097585;28;20170;-69
2022/08/01 07:07:55;;;;;;;4.05;2.30;;;;;;;21.55;63.69;101666.31;5105452;28;20150;-69
2022/08/01 07:10:23;;;;;;;4.72;2.47;;;;;;;21.57;63.59;101664.13;5097695;28;20124;-69
2022/08/01 07:12:51;;;;;;;5.05;2.55;;;;;;;21.59;63.46;101662.75;5106403;28;20133;-69
2022/08/01 07:15:21;;;;;;;3.65;2.05;;;;;;;21.61;63.41;101668.78;5105440;28;20052;-69
2022/08/01 07:17:49;;;;;;;4.78;2.20;;;;;;;21.62;63.29;101664.94;5105148;28;20056;-69
2022/08/01 07:20:17;;;;;;;4.45;2.05;;;;;;;21.62;63.35;101664.94;5096218;28;20059;-69
2022/08/01 07:22:46;;;;;;;2.72;1.80;;;;;;;21.63;63.35;101661.13;5107694;28;20076;-69
2022/08/01 07:25:16;;;;;;;2.28;1.60;;;;;;;21.62;63.15;101666.84;5103339;28;20086;-69
2022/08/01 07:27:44;;;;;;;3.00;1.80;;;;;;;21.63;63.09;101671.25;5096157;28;20052;-68
2022/08/01 07:30:13;;;;;;;2.05;1.75;;;;;;;21.62;63.20;101672.34;5107271;28;20040;-69
2022/08/01 07:32:40;;;;;;;1.88;1.50;;;;;;;21.63;63.22;101673.97;5090800;28;20080;-68
2022/08/01 07:35:09;;;;;;;3.10;1.58;;;;;;;21.62;63.24;101672.34;5105607;28;20047;-68
2022/08/01 07:37:37;;;;;;;2.83;1.63;;;;;;;21.62;63.15;101673.16;5107251;28;20083;-68
2022/08/01 07:40:18;;;;;;;2.53;1.88;;;;;;;21.61;63.18;101671.50;5101355;28;20050;-68
2022/08/01 07:42:46;;;;;;;2.28;1.58;;;;;;;21.61;63.21;101679.72;5104767;28;20218;-68
2022/08/01 07:45:14;;;;;;;2.28;1.52;;;;;;;21.60;63.15;101685.47;5096097;28;20048;-68
2022/08/01 07:47:42;;;;;;;3.80;1.67;;;;;;;21.45;63.00;101661.69;5107067;28;20072;-69
2022/08/01 07:50:12;;;;;;;1.70;1.58;;;;;;;21.47;63.26;101661.41;5099125;28;20055;-68
2022/08/01 07:52:40;;;;;;;3.47;1.70;;;;;;;21.59;63.23;101676.44;5107006;28;20044;-68
2022/08/01 07:55:09;;;;;;;4.13;1.60;;;;;;;21.60;63.10;101688.19;5103952;28;20056;-68
2022/08/01 07:57:38;;;;;;;1.90;1.38;;;;;;;21.47;63.09;101653.19;5104934;28;20055;-68
2022/08/01 08:00:08;;;;;;;2.28;1.52;;;;;;;21.60;62.85;101680.00;5106264;28;20055;-68
2022/08/01 08:02:36;;;;;;;2.38;1.50;;;;;;;21.62;62.97;101683.28;5105954;28;20051;-68
2022/08/01 08:05:06;;;;;;;2.95;1.40;;;;;;;21.62;62.71;101681.34;5103586;28;20055;-68
2022/08/01 08:07:34;;;;;;;2.75;1.50;;;;;;;21.64;62.78;101686.56;5101559;28;20052;-68
2022/08/01 08:10:02;;;;;;;2.28;1.50;;;;;;;21.67;62.94;101688.75;5105563;28;20044;-68
2022/08/01 08:12:30;;;;;;;2.28;1.50;;;;;;;21.66;62.71;101682.44;5106151;28;20057;-68
2022/08/01 08:15:00;;;;;;;1.60;1.50;;;;;;;21.58;62.73;101676.72;5097664;28;20048;-68
2022/08/01 08:17:28;;;;;;;4.70;1.70;;;;;;;21.60;62.65;101680.00;5106526;28;20048;-68
2022/08/01 08:20:04;;;;;;;4.40;1.33;;;;;;;21.71;62.51;101693.38;5105842;28;20086;-68
2022/08/01 08:22:35;;;;;;;3.65;1.60;;;;;;;21.72;62.59;101702.41;5102911;28;20087;-68
2022/08/01 08:25:03;;;;;;;2.28;1.90;;;;;;;21.59;62.58;101675.63;5101675;28;20075;-69
2022/08/01 08:27:34;;;;;;;1.30;1.20;;;;;;;21.73;62.44;101698.59;5104839;28;20108;-68
2022/08/01 08:30:08;;;;;;;2.47;1.60;;;;;;;21.75;62.33;101704.59;5096454;28;20043;-69
2022/08/01 08:32:36;;;;;;;1.50;1.40;;;;;;;21.75;62.41;101699.13;5106070;28;20059;-69
2022/08/01 08:35:05;;;;;;;1.55;1.45;;;;;;;21.74;62.31;101701.03;5105136;28;20044;-69
2022/08/01 08:37:34;;;;;;;2.20;1.65;;;;;;;21.75;62.47;101697.22;5105915;28;20062;-68
2022/08/01 08:40:10;;;;;;;2.47;1.80;;;;;;;21.76;62.10;101696.13;5097713;28;20040;-68
2022/08/01 08:42:41;;;;;;;2.00;1.65;;;;;;;21.77;62.32;101689.53;5091716;28;20059;-68
2022/08/01 08:45:11;;;;;;;2.88;1.70;;;;;;;21.81;61.94;101694.47;5100374;28;20056;-68
2022/08/01 08:47:42;;;;;;;2.97;1.45;;;;;;;21.80;61.97;101696.38;5105837;28;20077;-68
2022/08/01 08:50:10;;;;;;;1.88;1.70;;;;;;;21.81;61.73;101698.03;5105307;28;20044;-67
2022/08/01 08:52:39;;;;;;;2.25;1.80;;;;;;;21.83;61.95;101689.53;5105710;28;20055;-67
2022/08/01 08:55:09;;;;;;;4.05;1.80;;;;;;;21.84;61.76;101693.91;5088111;28;20485;-69
2022/08/01 08:57:40;;;;;;;3.72;1.73;;;;;;;21.84;61.62;101697.47;5096622;28;20101;-68
2022/08/01 09:00:11;;;;;;;2.00;1.60;;;;;;;21.86;61.64;101698.00;5101897;28;20066;-68
2022/08/01 09:02:42;;;;;;;2.15;1.70;;;;;;;21.88;61.50;101692.25;5105427;28;20048;-69
2022/08/01 09:05:10;;;;;;;1.70;1.45;;;;;;;21.88;61.67;101695.81;5103719;28;20048;-69
2022/08/01 09:07:45;;;;;;;1.50;1.30;;;;;;;21.91;61.72;101700.75;5086449;28;20064;-69
2022/08/01 09:10:13;;;;;;;2.63;1.70;;;;;;;21.92;61.56;101702.38;5101201;28;20405;-69
2022/08/01 09:13:06;;;;;;;2.20;1.83;;;;;;;21.93;61.35;101700.47;5105041;28;20048;-69
2022/08/01 09:15:46;;;;;;;1.63;1.52;;;;;;;21.94;61.40;101711.13;5103889;28;20157;-69
2022/08/01 09:18:32;;;;;;;2.30;1.58;;;;;;;21.94;61.26;101704.84;5090278;28;20051;-69
2022/08/01 09:21:25;;;;;;;2.20;1.70;;;;;;;21.94;61.26;101702.94;5105056;28;20166;-69
2022/08/01 09:23:58;;;;;;;1.98;1.70;;;;;;;21.82;61.47;101693.38;5094960;28;20058;-70
2022/08/01 09:26:31;;;;;;;2.65;1.50;;;;;;;21.98;61.62;101711.41;5100318;28;20074;-69
2022/08/01 09:29:02;;;;;;;1.80;1.15;;;;;;;21.90;61.48;101699.09;5103132;28;20048;-69
2022/08/01 09:31:40;;;;;;;1.30;1.20;;;;;;;22.01;61.57;101705.38;5096531;28;20044;-69
2022/08/01 09:34:14;;;;;;;1.40;1.30;;;;;;;22.04;61.36;101710.31;5104680;28;20052;-69
2022/08/01 09:36:51;;;;;;;1.60;1.30;;;;;;;22.05;61.48;101715.53;5101296;28;20052;-69
2022/08/01 09:39:22;;;;;;;1.42;1.30;;;;;;;22.12;61.46;101717.16;5098538;28;20086;-69
2022/08/01 09:41:50;;;;;;;1.27;1.17;;;;;;;22.12;61.40;101707.03;5102400;28;20112;-69
2022/08/01 09:44:38;;;;;;;1.33;1.20;;;;;;;22.16;61.22;101708.09;5100840;28;20079;-69
2022/08/01 09:47:12;;;;;;;1.23;1.13;;;;;;;22.16;61.36;101713.56;5095981;28;20112;-68
2022/08/01 09:49:43;;;;;;;1.48;1.38;;;;;;;22.19;61.01;101704.00;5091559;28;20079;-68
2022/08/01 09:52:19;;;;;;;;;;;;;;;22.20;61.08;101709.19;5097442;28;20053;-68
2022/08/01 09:54:54;;;;;;;1.60;1.30;;;;;;;22.18;61.16;101705.09;5091356;28;19923;-68
2022/08/01 09:57:23;;;;;;;1.25;1.13;;;;;;;22.23;60.88;101711.38;5099974;28;20036;-69
2022/08/01 09:59:53;;;;;;;2.05;1.20;;;;;;;22.25;61.25;101705.63;5109824;28;20067;-69
2022/08/01 10:02:31;;;;;;;3.00;1.25;;;;;;;22.26;60.83;101702.59;5104630;28;20461;-69
2022/08/01 10:04:59;;;;;;;1.77;1.15;;;;;;;22.28;60.80;101707.78;5104117;28;20052;-68
2022/08/01 10:07:36;;;;;;;1.23;1.13;;;;;;;22.30;60.61;101705.59;5091334;28;20044;-68
2022/08/01 10:10:12;;;;;;;1.67;1.40;;;;;;;22.33;60.79;101703.13;5100286;28;20082;-68
2022/08/01 10:12:42;;;;;;;1.73;1.20;;;;;;;22.24;60.64;101693.03;5091621;28;20056;-69
2022/08/01 10:15:16;;;;;;;1.20;1.10;;;;;;;22.39;60.33;101712.94;5103612;28;20048;-69
2022/08/01 10:17:54;;;;;;;1.48;1.05;;;;;;;22.41;60.23;101709.94;5096958;28;20063;-69
2022/08/01 10:20:25;;;;;;;2.08;1.63;;;;;;;22.43;60.34;101707.72;5104623;28;20047;-69
2022/08/01 10:23:01;;;;;;;1.20;1.10;;;;;;;22.45;59.67;101708.28;5084443;28;20068;-69
2022/08/01 10:25:36;;;;;;;3.25;1.20;;;;;;;22.47;60.05;101706.06;5099647;28;20063;-69
2022/08/01 10:28:16;;;;;;;1.65;1.27;;;;;;;22.50;60.03;101705.50;5101844;28;20052;-69
2022/08/01 10:30:48;;;;;;;1.20;1.10;;;;;;;22.53;59.86;101702.22;5107824;28;20413;-69
2022/08/01 10:33:22;;;;;;;2.00;1.23;;;;;;;22.45;59.82;101691.84;5091666;28;20116;-68
2022/08/01 10:36:10;;;;;;;1.27;1.10;;;;;;;22.49;59.49;101692.91;5105193;28;20052;-69
2022/08/01 10:38:40;;;;;;;1.80;1.25;;;;;;;22.61;59.41;101707.06;5107449;28;20091;-69
2022/08/01 10:41:10;;;;;;;0.80;0.80;;;;;;;22.65;59.73;101707.34;5105446;28;20069;-69
2022/08/01 10:43:39;;;;;;;1.77;1.38;;;;;;;22.65;58.16;101705.41;5102743;28;20067;-68
2022/08/01 10:46:12;;;;;;;1.60;1.17;;;;;;;22.67;58.63;101705.13;5107153;28;20516;-68
2022/08/01 10:48:47;;;;;;;1.85;1.30;;;;;;;22.67;57.33;101702.38;5107075;28;20086;-69
2022/08/01 10:51:20;;;;;;;2.70;0.88;;;;;;;22.66;57.37;101706.22;5102806;28;20072;-69
2022/08/01 10:53:49;;;;;;;2.15;1.30;;;;;;;22.67;57.34;101705.94;5108097;28;20048;-69
2022/08/01 10:56:21;;;;;;;2.17;1.00;;;;;;;22.55;57.57;101689.03;5095894;28;20059;-69
2022/08/01 10:59:03;;;;;;;1.10;1.00;;;;;;;22.68;57.97;101693.06;5106915;28;20176;-68
2022/08/01 11:01:33;;;;;;;1.02;0.80;;;;;;;22.72;57.11;101705.91;5105330;28;20056;-69
2022/08/01 11:04:09;;;;;;;1.45;1.20;;;;;;;22.71;57.34;101704.28;5107788;28;20052;-68
2022/08/01 11:07:04;;;;;;;1.35;1.02;;;;;;;22.71;57.24;101703.47;5107570;28;20071;-68
2022/08/01 11:09:43;;;;;;;3.72;1.00;;;;;;;22.72;57.99;101708.66;5105101;28;20048;-69
2022/08/01 11:12:19;;;;;;;3.60;1.08;;;;;;;22.76;57.79;101708.91;5104348;28;20045;-68
2022/08/01 11:15:31;;;;;;;3.17;1.10;;;;;;;22.79;57.70;101716.59;5099437;28;20077;-68
2022/08/01 11:18:01;;;;;;;2.72;1.30;;;;;;;22.80;57.88;101729.22;5101784;28;20077;-68
2022/08/01 11:20:34;;;;;;;1.83;1.27;;;;;;;22.81;57.94;101732.78;5100466;28;20055;-68
2022/08/01 11:23:19;;;;;;;2.85;0.90;;;;;;;22.78;58.33;101730.56;5104023;28;20052;-68
2022/08/01 11:26:09;;;;;;;1.85;1.05;;;;;;;22.77;58.07;101731.66;5106935;28;20138;-69
2022/08/01 11:28:37;;;;;;;1.98;1.10;;;;;;;22.79;58.72;101738.53;5100872;28;20048;-69
2022/08/01 11:31:31;;;;;;;2.47;1.00;;;;;;;22.80;58.31;101751.13;5105142;28;20051;-69
2022/08/01 11:34:04;;;;;;;2.35;0.95;;;;;;;22.81;58.37;101743.72;5103261;28;20052;-69
2022/08/01 11:36:43;;;;;;;3.97;1.05;;;;;;;22.82;58.77;101745.38;5105341;28;20054;-69
2022/08/01 11:39:27;;;;;;;2.05;0.90;;;;;;;22.85;58.62;101750.28;5103483;28;20059;-69
2022/08/01 11:42:16;;;;;;;1.10;0.90;;;;;;;22.89;59.00;101751.38;5104401;28;20044;-69
2022/08/01 11:44:50;;;;;;;3.03;1.02;;;;;;;22.86;58.90;101740.97;5106348;28;20051;-68